createdAt,value
2023-02-18T00:00:22.335Z,1009.19
2023-02-18T00:01:22.360Z,1009.16
2023-02-18T00:02:22.347Z,1009.15
2023-02-18T00:03:22.353Z,1009.13
2023-02-18T00:04:22.283Z,1009.19
2023-02-18T00:05:22.267Z,1009.12
2023-02-18T00:06:22.277Z,1009.10
2023-02-18T00:07:22.242Z,1009.23
2023-02-18T00:08:22.234Z,1009.20
2023-02-18T00:09:22.221Z,1009.21
2023-02-18T00:10:22.206Z,1009.22
2023-02-18T00:11:22.203Z,1009.22
2023-02-18T00:12:22.180Z,1009.21
2023-02-18T00:13:22.162Z,1009.24
2023-02-18T00:14:22.148Z,1009.19
2023-02-18T00:15:22.144Z,1009.23
2023-02-18T00:16:22.143Z,1009.21
2023-02-18T00:17:22.135Z,1009.24
2023-02-18T00:18:22.099Z,1009.25
2023-02-18T00:19:22.091Z,1009.25
2023-02-18T00:20:22.077Z,1009.23
2023-02-18T00:21:22.076Z,1009.20
2023-02-18T00:22:22.046Z,1009.25
2023-02-18T00:23:22.035Z,1009.24
2023-02-18T00:24:22.021Z,1009.25
2023-02-18T00:25:22.013Z,1009.23
2023-02-18T00:26:22.013Z,1009.30
2023-02-18T00:27:21.981Z,1009.32
2023-02-18T00:28:21.969Z,1009.25
2023-02-18T00:29:21.957Z,1009.21
2023-02-18T00:30:21.997Z,1009.12
2023-02-18T00:31:22.099Z,1009.19
2023-02-18T00:32:21.948Z,1009.17
2023-02-18T00:33:21.928Z,1009.10
2023-02-18T00:34:21.894Z,1009.12
2023-02-18T00:35:21.882Z,1009.06
2023-02-18T00:36:21.868Z,1009.06
2023-02-18T00:37:21.867Z,1009.05
2023-02-18T00:38:21.838Z,1009.04
2023-02-18T00:39:21.829Z,1009.06
2023-02-18T00:40:21.814Z,1009.09
2023-02-18T00:41:21.796Z,1009.12
2023-02-18T00:42:21.808Z,1009.17
2023-02-18T00:43:21.771Z,1009.13
2023-02-18T00:44:21.760Z,1009.10
2023-02-18T00:45:21.774Z,1009.20
2023-02-18T00:46:22.507Z,1009.16
2023-02-18T00:47:21.738Z,1009.14
2023-02-18T00:48:21.708Z,1009.06
2023-02-18T00:49:21.720Z,1009.13
2023-02-18T00:50:21.690Z,1009.16
2023-02-18T00:51:21.675Z,1009.10
2023-02-18T00:52:21.677Z,1009.12
2023-02-18T00:53:21.647Z,1009.11
2023-02-18T00:54:21.636Z,1009.13
2023-02-18T00:55:21.626Z,1009.10
2023-02-18T00:56:21.616Z,1009.05
2023-02-18T00:57:21.623Z,1009.06
2023-02-18T00:58:21.580Z,1009.08
2023-02-18T00:59:21.566Z,1009.05
2023-02-18T01:00:21.555Z,1009.05
2023-02-18T01:01:21.579Z,1009.12
2023-02-18T01:02:21.567Z,1009.14
2023-02-18T01:03:21.517Z,1009.14
2023-02-18T01:04:21.519Z,1009.20
2023-02-18T01:05:21.519Z,1009.17
2023-02-18T01:06:21.479Z,1009.16
2023-02-18T01:07:21.479Z,1009.19
2023-02-18T01:08:21.450Z,1009.21
2023-02-18T01:09:21.448Z,1009.17
2023-02-18T01:10:21.427Z,1009.18
2023-02-18T01:11:21.430Z,1009.21
2023-02-18T01:12:21.413Z,1009.21
2023-02-18T01:13:21.386Z,1009.24
2023-02-18T01:14:21.375Z,1009.21
2023-02-18T01:15:21.366Z,1009.23
2023-02-18T01:16:21.391Z,1009.26
2023-02-18T01:17:21.358Z,1009.21
2023-02-18T01:18:21.320Z,1009.21
2023-02-18T01:19:21.310Z,1009.23
2023-02-18T01:20:21.302Z,1009.23
2023-02-18T01:21:21.308Z,1009.23
2023-02-18T01:22:21.299Z,1009.17
2023-02-18T01:23:21.260Z,1009.16
2023-02-18T01:24:21.247Z,1009.11
2023-02-18T01:25:21.230Z,1009.06
2023-02-18T01:26:21.224Z,1009.05
2023-02-18T01:27:21.228Z,1009.07
2023-02-18T01:28:21.201Z,1009.03
2023-02-18T01:29:21.182Z,1009.09
2023-02-18T01:30:21.287Z,1009.07
2023-02-18T01:31:21.276Z,1009.07
2023-02-18T01:32:21.174Z,1009.08
2023-02-18T01:33:21.125Z,1009.00
2023-02-18T01:34:21.114Z,1009.00
2023-02-18T01:35:21.106Z,1009.04
2023-02-18T01:36:21.088Z,1009.01
2023-02-18T01:37:21.098Z,1009.02
2023-02-18T01:38:21.079Z,1008.98
2023-02-18T01:39:21.043Z,1008.99
2023-02-18T01:40:21.034Z,1009.01
2023-02-18T01:41:21.023Z,1009.02
2023-02-18T01:42:21.003Z,1008.95
2023-02-18T01:43:21.002Z,1008.97
2023-02-18T01:44:20.997Z,1008.91
2023-02-18T01:45:20.966Z,1008.93
2023-02-18T01:46:21.001Z,1008.99
2023-02-18T01:47:20.944Z,1008.94
2023-02-18T01:48:20.939Z,1008.90
2023-02-18T01:49:20.914Z,1008.92
2023-02-18T01:50:20.896Z,1008.93
2023-02-18T01:51:20.884Z,1008.98
2023-02-18T01:52:20.870Z,1008.96
2023-02-18T01:53:20.895Z,1009.03
2023-02-18T01:54:20.846Z,1009.00
2023-02-18T01:55:20.841Z,1009.01
2023-02-18T01:56:20.819Z,1008.96
2023-02-18T01:57:20.811Z,1008.93
2023-02-18T01:58:20.802Z,1008.90
2023-02-18T01:59:20.780Z,1008.86
2023-02-18T02:00:20.768Z,1008.79
2023-02-18T02:01:20.754Z,1008.75
2023-02-18T02:02:20.761Z,1008.78
2023-02-18T02:03:20.741Z,1008.71
2023-02-18T02:04:20.708Z,1008.78
2023-02-18T02:05:20.707Z,1008.76
2023-02-18T02:06:20.681Z,1008.75
2023-02-18T02:07:20.672Z,1008.69
2023-02-18T02:08:20.669Z,1008.65
2023-02-18T02:09:20.661Z,1008.66
2023-02-18T02:10:20.631Z,1008.60
2023-02-18T02:11:20.620Z,1008.63
2023-02-18T02:12:20.614Z,1008.63
2023-02-18T02:13:20.609Z,1008.65
2023-02-18T02:14:20.579Z,1008.61
2023-02-18T02:15:20.586Z,1008.66
2023-02-18T02:16:20.633Z,1008.65
2023-02-18T02:17:20.568Z,1008.64
2023-02-18T02:18:20.569Z,1008.63
2023-02-18T02:19:20.517Z,1008.62
2023-02-18T02:20:20.500Z,1008.65
2023-02-18T02:21:20.499Z,1008.67
2023-02-18T02:22:20.478Z,1008.62
2023-02-18T02:23:20.478Z,1008.63
2023-02-18T02:24:20.451Z,1008.58
2023-02-18T02:25:20.458Z,1008.60
2023-02-18T02:26:20.426Z,1008.58
2023-02-18T02:27:20.411Z,1008.60
2023-02-18T02:28:20.423Z,1008.55
2023-02-18T02:29:20.386Z,1008.55
2023-02-18T02:30:20.432Z,1008.51
2023-02-18T02:31:20.448Z,1008.53
2023-02-18T02:32:20.340Z,1008.53
2023-02-18T02:33:20.371Z,1008.54
2023-02-18T02:34:20.313Z,1008.46
2023-02-18T02:35:20.314Z,1008.51
2023-02-18T02:36:20.290Z,1008.53
2023-02-18T02:37:20.281Z,1008.48
2023-02-18T02:38:20.298Z,1008.47
2023-02-18T02:39:20.249Z,1008.47
2023-02-18T02:40:20.272Z,1008.46
2023-02-18T02:41:20.245Z,1008.52
2023-02-18T02:42:20.211Z,1008.55
2023-02-18T02:43:20.234Z,1008.50
2023-02-18T02:44:20.193Z,1008.50
2023-02-18T02:45:20.173Z,1008.53
2023-02-18T02:46:20.168Z,1008.48
2023-02-18T02:47:20.153Z,1008.54
2023-02-18T02:48:20.138Z,1008.53
2023-02-18T02:49:20.144Z,1008.49
2023-02-18T02:50:20.118Z,1008.51
2023-02-18T02:51:20.103Z,1008.53
2023-02-18T02:52:20.088Z,1008.50
2023-02-18T02:53:20.073Z,1008.48
2023-02-18T02:54:20.188Z,1008.46
2023-02-18T02:55:20.072Z,1008.43
2023-02-18T02:56:20.039Z,1008.49
2023-02-18T02:57:20.063Z,1008.44
2023-02-18T02:58:20.009Z,1008.46
2023-02-18T02:59:20.014Z,1008.42
2023-02-18T03:00:19.981Z,1008.41
2023-02-18T03:01:20.039Z,1008.42
2023-02-18T03:02:19.956Z,1008.36
2023-02-18T03:03:20.103Z,1008.39
2023-02-18T03:04:19.972Z,1008.36
2023-02-18T03:05:19.919Z,1008.32
2023-02-18T03:06:19.902Z,1008.38
2023-02-18T03:07:19.896Z,1008.32
2023-02-18T03:08:19.880Z,1008.29
2023-02-18T03:09:19.889Z,1008.36
2023-02-18T03:10:19.859Z,1008.33
2023-02-18T03:11:19.836Z,1008.36
2023-02-18T03:12:19.835Z,1008.40
2023-02-18T03:13:19.846Z,1008.39
2023-02-18T03:14:19.815Z,1008.35
2023-02-18T03:15:19.787Z,1008.36
2023-02-18T03:16:19.802Z,1008.34
2023-02-18T03:17:19.757Z,1008.38
2023-02-18T03:18:19.747Z,1008.38
2023-02-18T03:19:19.752Z,1008.38
2023-02-18T03:20:19.727Z,1008.42
2023-02-18T03:21:19.704Z,1008.41
2023-02-18T03:22:19.688Z,1008.40
2023-02-18T03:23:19.676Z,1008.48
2023-02-18T03:24:19.698Z,1008.39
2023-02-18T03:25:19.668Z,1008.43
2023-02-18T03:26:19.642Z,1008.38
2023-02-18T03:27:19.635Z,1008.39
2023-02-18T03:28:19.612Z,1008.38
2023-02-18T03:29:19.642Z,1008.32
2023-02-18T03:30:19.629Z,1008.36
2023-02-18T03:31:19.670Z,1008.36
2023-02-18T03:32:19.638Z,1008.41
2023-02-18T03:33:19.549Z,1008.33
2023-02-18T03:34:19.546Z,1008.36
2023-02-18T03:35:19.528Z,1008.41
2023-02-18T03:36:19.510Z,1008.42
2023-02-18T03:37:19.497Z,1008.43
2023-02-18T03:38:19.490Z,1008.46
2023-02-18T03:39:19.492Z,1008.45
2023-02-18T03:40:19.458Z,1008.37
2023-02-18T03:41:19.460Z,1008.31
2023-02-18T03:42:19.459Z,1008.28
2023-02-18T03:43:19.425Z,1008.25
2023-02-18T03:44:19.431Z,1008.22
2023-02-18T03:45:19.414Z,1008.25
2023-02-18T03:46:19.431Z,1008.24
2023-02-18T03:47:19.366Z,1008.22
2023-02-18T03:48:19.355Z,1008.29
2023-02-18T03:49:19.346Z,1008.34
2023-02-18T03:50:19.353Z,1008.29
2023-02-18T03:51:19.327Z,1008.25
2023-02-18T03:52:19.303Z,1008.25
2023-02-18T03:53:19.297Z,1008.27
2023-02-18T03:54:19.274Z,1008.27
2023-02-18T03:55:19.280Z,1008.27
2023-02-18T03:56:19.248Z,1008.27
2023-02-18T03:57:19.232Z,1008.25
2023-02-18T03:58:19.233Z,1008.21
2023-02-18T03:59:19.204Z,1008.23
2023-02-18T04:00:19.219Z,1008.24
2023-02-18T04:01:19.244Z,1008.29
2023-02-18T04:02:19.171Z,1008.31
2023-02-18T04:03:19.152Z,1008.26
2023-02-18T04:04:19.221Z,1008.31
2023-02-18T04:05:19.143Z,1008.33
2023-02-18T04:06:19.120Z,1008.36
2023-02-18T04:07:19.115Z,1008.32
2023-02-18T04:08:19.091Z,1008.25
2023-02-18T04:09:19.078Z,1008.31
2023-02-18T04:10:19.088Z,1008.30
2023-02-18T04:11:19.046Z,1008.37
2023-02-18T04:12:19.039Z,1008.34
2023-02-18T04:13:19.026Z,1008.43
2023-02-18T04:14:19.016Z,1008.44
2023-02-18T04:15:19.020Z,1008.38
2023-02-18T04:16:19.048Z,1008.33
2023-02-18T04:17:18.992Z,1008.30
2023-02-18T04:18:18.958Z,1008.30
2023-02-18T04:19:18.947Z,1008.31
2023-02-18T04:20:18.948Z,1008.32
2023-02-18T04:21:18.926Z,1008.26
2023-02-18T04:22:18.908Z,1008.30
2023-02-18T04:23:18.895Z,1008.27
2023-02-18T04:24:18.887Z,1008.33
2023-02-18T04:25:18.879Z,1008.31
2023-02-18T04:26:18.856Z,1008.33
2023-02-18T04:27:18.844Z,1008.32
2023-02-18T04:28:18.836Z,1008.35
2023-02-18T04:29:18.844Z,1008.32
2023-02-18T04:30:19.156Z,1008.35
2023-02-18T04:31:18.841Z,1008.36
2023-02-18T04:32:18.783Z,1008.36
2023-02-18T04:33:18.784Z,1008.28
2023-02-18T04:34:18.758Z,1008.32
2023-02-18T04:35:18.748Z,1008.29
2023-02-18T04:36:18.728Z,1008.37
2023-02-18T04:37:18.717Z,1008.29
2023-02-18T04:38:18.701Z,1008.22
2023-02-18T04:39:18.685Z,1008.26
2023-02-18T04:40:18.688Z,1008.27
2023-02-18T04:41:18.663Z,1008.19
2023-02-18T04:42:18.661Z,1008.22
2023-02-18T04:43:18.635Z,1008.19
2023-02-18T04:44:18.631Z,1008.23
2023-02-18T04:45:18.621Z,1008.15
2023-02-18T04:46:18.669Z,1008.18
2023-02-18T04:47:18.587Z,1008.21
2023-02-18T04:48:18.571Z,1008.13
2023-02-18T04:49:18.588Z,1008.23
2023-02-18T04:50:18.562Z,1008.21
2023-02-18T04:51:18.546Z,1008.20
2023-02-18T04:52:18.530Z,1008.21
2023-02-18T04:53:18.515Z,1008.19
2023-02-18T04:54:18.487Z,1008.17
2023-02-18T04:55:18.496Z,1008.21
2023-02-18T04:56:18.468Z,1008.24
2023-02-18T04:57:18.467Z,1008.19
2023-02-18T04:58:18.445Z,1008.17
2023-02-18T04:59:18.426Z,1008.18
2023-02-18T05:00:18.446Z,1008.15
2023-02-18T05:01:18.501Z,1008.13
2023-02-18T05:02:18.474Z,1008.17
2023-02-18T05:03:18.385Z,1008.20
2023-02-18T05:04:18.408Z,1008.16
2023-02-18T05:05:18.401Z,1008.22
2023-02-18T05:06:18.340Z,1008.22
2023-02-18T05:07:18.383Z,1008.26
2023-02-18T05:08:18.312Z,1008.23
2023-02-18T05:09:18.311Z,1008.21
2023-02-18T05:10:18.311Z,1008.25
2023-02-18T05:11:18.277Z,1008.22
2023-02-18T05:12:18.268Z,1008.23
2023-02-18T05:13:18.248Z,1008.22
2023-02-18T05:14:18.242Z,1008.16
2023-02-18T05:15:18.237Z,1008.17
2023-02-18T05:16:18.208Z,1008.16
2023-02-18T05:17:18.201Z,1008.20
2023-02-18T05:18:18.194Z,1008.18
2023-02-18T05:19:18.176Z,1008.15
2023-02-18T05:20:18.174Z,1008.15
2023-02-18T05:21:18.160Z,1008.21
2023-02-18T05:22:18.135Z,1008.15
2023-02-18T05:23:18.129Z,1008.17
2023-02-18T05:24:18.115Z,1008.13
2023-02-18T05:25:18.121Z,1008.05
2023-02-18T05:26:18.077Z,1008.08
2023-02-18T05:27:18.068Z,1007.99
2023-02-18T05:28:18.059Z,1008.00
2023-02-18T05:29:18.039Z,1008.04
2023-02-18T05:30:18.076Z,1008.00
2023-02-18T05:31:18.140Z,1007.93
2023-02-18T05:32:18.001Z,1007.91
2023-02-18T05:33:17.989Z,1007.89
2023-02-18T05:34:17.974Z,1007.96
2023-02-18T05:35:17.958Z,1007.95
2023-02-18T05:36:17.960Z,1007.95
2023-02-18T05:37:17.955Z,1007.96
2023-02-18T05:38:17.944Z,1007.86
2023-02-18T05:39:17.915Z,1007.87
2023-02-18T05:40:17.896Z,1007.86
2023-02-18T05:41:17.890Z,1007.87
2023-02-18T05:42:17.876Z,1007.84
2023-02-18T05:43:17.854Z,1007.84
2023-02-18T05:44:17.840Z,1007.83
2023-02-18T05:45:17.824Z,1007.82
2023-02-18T05:46:17.852Z,1007.80
2023-02-18T05:47:17.797Z,1007.85
2023-02-18T05:48:17.783Z,1007.79
2023-02-18T05:49:17.775Z,1007.81
2023-02-18T05:50:17.773Z,1007.78
2023-02-18T05:51:17.761Z,1007.82
2023-02-18T05:52:17.737Z,1007.80
2023-02-18T05:53:17.790Z,1007.77
2023-02-18T05:54:17.710Z,1007.74
2023-02-18T05:55:17.689Z,1007.72
2023-02-18T05:56:17.690Z,1007.74
2023-02-18T05:57:17.660Z,1007.72
2023-02-18T05:58:17.656Z,1007.71
2023-02-18T05:59:17.635Z,1007.73
2023-02-18T06:00:17.627Z,1007.72
2023-02-18T06:01:17.630Z,1007.65
2023-02-18T06:02:17.719Z,1007.55
2023-02-18T06:03:17.587Z,1007.66
2023-02-18T06:04:17.578Z,1007.67
2023-02-18T06:05:17.558Z,1007.69
2023-02-18T06:06:17.608Z,1007.67
2023-02-18T06:07:17.538Z,1007.65
2023-02-18T06:08:17.533Z,1007.71
2023-02-18T06:09:17.542Z,1007.62
2023-02-18T06:10:17.501Z,1007.66
2023-02-18T06:11:17.491Z,1007.52
2023-02-18T06:12:17.463Z,1007.48
2023-02-18T06:13:17.454Z,1007.44
2023-02-18T06:14:17.439Z,1007.49
2023-02-18T06:15:17.423Z,1007.53
2023-02-18T06:16:17.453Z,1007.50
2023-02-18T06:17:17.396Z,1007.52
2023-02-18T06:18:17.392Z,1007.48
2023-02-18T06:19:17.372Z,1007.48
2023-02-18T06:20:17.366Z,1007.52
2023-02-18T06:21:17.370Z,1007.51
2023-02-18T06:22:17.339Z,1007.49
2023-02-18T06:23:17.347Z,1007.51
2023-02-18T06:24:17.310Z,1007.47
2023-02-18T06:25:17.315Z,1007.41
2023-02-18T06:26:17.319Z,1007.44
2023-02-18T06:27:17.265Z,1007.43
2023-02-18T06:28:17.261Z,1007.50
2023-02-18T06:29:17.247Z,1007.52
2023-02-18T06:30:17.258Z,1007.49
2023-02-18T06:31:17.333Z,1007.52
2023-02-18T06:32:17.296Z,1007.53
2023-02-18T06:33:17.189Z,1007.55
2023-02-18T06:34:17.172Z,1007.51
2023-02-18T06:35:17.162Z,1007.58
2023-02-18T06:36:17.162Z,1007.52
2023-02-18T06:37:17.126Z,1007.58
2023-02-18T06:38:17.119Z,1007.54
2023-02-18T06:39:17.102Z,1007.55
2023-02-18T06:40:17.087Z,1007.51
2023-02-18T06:41:17.114Z,1007.54
2023-02-18T06:42:17.069Z,1007.60
2023-02-18T06:43:17.044Z,1007.50
2023-02-18T06:44:17.047Z,1007.61
2023-02-18T06:45:17.023Z,1007.54
2023-02-18T06:46:17.048Z,1007.51
2023-02-18T06:47:17.010Z,1007.51
2023-02-18T06:48:17.045Z,1007.45
2023-02-18T06:49:16.968Z,1007.55
2023-02-18T06:50:16.953Z,1007.51
2023-02-18T06:51:16.959Z,1007.52
2023-02-18T06:52:16.927Z,1007.46
2023-02-18T06:53:16.913Z,1007.52
2023-02-18T06:54:16.899Z,1007.44
2023-02-18T06:55:16.884Z,1007.46
2023-02-18T06:56:16.893Z,1007.52
2023-02-18T06:57:16.877Z,1007.48
2023-02-18T06:58:16.847Z,1007.44
2023-02-18T06:59:16.837Z,1007.47
2023-02-18T07:00:16.825Z,1007.39
2023-02-18T07:01:16.920Z,1007.39
2023-02-18T07:02:16.802Z,1007.33
2023-02-18T07:03:16.782Z,1007.37
2023-02-18T07:04:16.773Z,1007.39
2023-02-18T07:05:16.757Z,1007.31
2023-02-18T07:06:16.770Z,1007.42
2023-02-18T07:07:16.733Z,1007.37
2023-02-18T07:08:16.806Z,1007.35
2023-02-18T07:09:16.705Z,1007.41
2023-02-18T07:10:16.717Z,1007.35
2023-02-18T07:11:16.692Z,1007.29
2023-02-18T07:12:16.664Z,1007.28
2023-02-18T07:13:16.670Z,1007.29
2023-02-18T07:14:16.652Z,1007.30
2023-02-18T07:15:16.622Z,1007.25
2023-02-18T07:16:16.669Z,1007.19
2023-02-18T07:17:16.596Z,1007.20
2023-02-18T07:18:16.625Z,1007.25
2023-02-18T07:19:16.601Z,1007.30
2023-02-18T07:20:16.563Z,1007.21
2023-02-18T07:21:16.572Z,1007.27
2023-02-18T07:22:16.575Z,1007.27
2023-02-18T07:23:16.543Z,1007.27
2023-02-18T07:24:16.550Z,1007.34
2023-02-18T07:25:16.523Z,1007.28
2023-02-18T07:26:16.494Z,1007.33
2023-02-18T07:27:16.514Z,1007.25
2023-02-18T07:28:16.495Z,1007.24
2023-02-18T07:29:16.456Z,1007.27
2023-02-18T07:30:16.450Z,1007.24
2023-02-18T07:31:16.536Z,1007.27
2023-02-18T07:32:16.823Z,1007.32
2023-02-18T07:33:16.391Z,1007.19
2023-02-18T07:34:16.380Z,1007.23
2023-02-18T07:35:16.357Z,1007.19
2023-02-18T07:36:16.354Z,1007.28
2023-02-18T07:37:16.371Z,1007.19
2023-02-18T07:38:16.332Z,1007.24
2023-02-18T07:39:16.317Z,1007.31
2023-02-18T07:40:16.297Z,1007.26
2023-02-18T07:41:16.302Z,1007.30
2023-02-18T07:42:16.284Z,1007.32
2023-02-18T07:43:16.252Z,1007.34
2023-02-18T07:44:16.246Z,1007.41
2023-02-18T07:45:16.259Z,1007.37
2023-02-18T07:46:16.268Z,1007.35
2023-02-18T07:47:16.220Z,1007.32
2023-02-18T07:48:16.188Z,1007.36
2023-02-18T07:49:16.180Z,1007.35
2023-02-18T07:50:16.176Z,1007.40
2023-02-18T07:51:16.158Z,1007.38
2023-02-18T07:52:16.161Z,1007.25
2023-02-18T07:53:16.133Z,1007.30
2023-02-18T07:54:16.114Z,1007.26
2023-02-18T07:55:16.118Z,1007.24
2023-02-18T07:56:16.090Z,1007.33
2023-02-18T07:57:16.086Z,1007.28
2023-02-18T07:58:16.059Z,1007.25
2023-02-18T07:59:16.046Z,1007.25
2023-02-18T08:00:16.032Z,1007.17
2023-02-18T08:01:16.041Z,1007.22
2023-02-18T08:02:16.119Z,1007.20
2023-02-18T08:03:16.002Z,1007.24
2023-02-18T08:04:16.042Z,1007.24
2023-02-18T08:05:15.970Z,1007.27
2023-02-18T08:06:15.956Z,1007.26
2023-02-18T08:07:15.954Z,1007.24
2023-02-18T08:08:15.939Z,1007.25
2023-02-18T08:09:15.917Z,1007.13
2023-02-18T08:10:15.906Z,1007.07
2023-02-18T08:11:19.392Z,1007.14
2023-02-18T08:12:15.890Z,1007.13
2023-02-18T08:13:15.869Z,1007.07
2023-02-18T08:14:15.861Z,1007.02
2023-02-18T08:15:15.838Z,1007.02
2023-02-18T08:16:15.885Z,1007.03
2023-02-18T08:17:15.842Z,1006.99
2023-02-18T08:18:15.801Z,1006.89
2023-02-18T08:19:15.784Z,1006.88
2023-02-18T08:20:15.769Z,1006.91
2023-02-18T08:21:15.762Z,1006.99
2023-02-18T08:22:15.759Z,1006.93
2023-02-18T08:23:15.743Z,1007.00
2023-02-18T08:24:15.719Z,1007.01
2023-02-18T08:25:28.756Z,1006.87
2023-02-18T08:26:15.696Z,1007.06
2023-02-18T08:27:15.697Z,1007.04
2023-02-18T08:28:15.669Z,1007.01
2023-02-18T08:29:15.664Z,1007.04
2023-02-18T08:30:15.683Z,1006.99
2023-02-18T08:31:15.962Z,1007.05
2023-02-18T08:32:15.653Z,1007.02
2023-02-18T08:33:15.625Z,1007.08
2023-02-18T08:34:15.595Z,1007.15
2023-02-18T08:35:15.583Z,1007.14
2023-02-18T08:36:15.571Z,1007.19
2023-02-18T08:37:15.550Z,1007.09
2023-02-18T08:38:15.546Z,1007.21
2023-02-18T08:39:15.533Z,1007.19
2023-02-18T08:40:15.503Z,1007.25
2023-02-18T08:41:15.490Z,1007.26
2023-02-18T08:42:15.477Z,1007.31
2023-02-18T08:43:15.479Z,1007.30
2023-02-18T08:44:15.455Z,1007.34
2023-02-18T08:45:15.435Z,1007.37
2023-02-18T08:46:16.533Z,1007.39
2023-02-18T08:48:13.656Z,1007.40
2023-02-18T08:48:20.335Z,1007.43
2023-02-18T08:49:15.410Z,1007.45
2023-02-18T08:50:15.376Z,1007.43
2023-02-18T08:51:15.357Z,1007.43
2023-02-18T08:52:15.345Z,1007.46
2023-02-18T08:53:15.355Z,1007.54
2023-02-18T08:54:15.312Z,1007.49
2023-02-18T08:55:15.307Z,1007.49
2023-02-18T08:56:15.290Z,1007.52
2023-02-18T08:57:15.278Z,1007.54
2023-02-18T08:58:15.278Z,1007.51
2023-02-18T08:59:15.250Z,1007.54
2023-02-18T09:00:15.511Z,1007.59
2023-02-18T09:01:15.352Z,1007.54
2023-02-18T09:02:15.232Z,1007.46
2023-02-18T09:03:15.211Z,1007.41
2023-02-18T09:04:15.219Z,1007.45
2023-02-18T09:05:15.195Z,1007.42
2023-02-18T09:06:15.164Z,1007.37
2023-02-18T09:07:15.142Z,1007.39
2023-02-18T09:08:15.156Z,1007.38
2023-02-18T09:09:15.112Z,1007.42
2023-02-18T09:10:15.095Z,1007.44
2023-02-18T09:11:15.088Z,1007.44
2023-02-18T09:12:15.072Z,1007.45
2023-02-18T09:13:15.074Z,1007.52
2023-02-18T09:14:15.046Z,1007.51
2023-02-18T09:15:15.027Z,1007.49
2023-02-18T09:16:15.027Z,1007.46
2023-02-18T09:17:15.005Z,1007.48
2023-02-18T09:18:15.004Z,1007.40
2023-02-18T09:19:14.978Z,1007.51
2023-02-18T09:20:14.960Z,1007.49
2023-02-18T09:21:14.979Z,1007.55
2023-02-18T09:22:14.977Z,1007.52
2023-02-18T09:23:14.934Z,1007.52
2023-02-18T09:24:14.908Z,1007.45
2023-02-18T09:25:14.891Z,1007.38
2023-02-18T09:26:14.886Z,1007.29
2023-02-18T09:27:14.868Z,1007.31
2023-02-18T09:28:14.865Z,1007.28
2023-02-18T09:29:14.837Z,1007.19
2023-02-18T09:30:14.899Z,1007.27
2023-02-18T09:31:15.108Z,1007.39
2023-02-18T09:32:22.615Z,1007.42
2023-02-18T09:33:14.804Z,1007.45
2023-02-18T09:34:14.768Z,1007.35
2023-02-18T09:35:14.773Z,1007.34
2023-02-18T09:36:14.743Z,1007.29
2023-02-18T09:37:14.747Z,1007.26
2023-02-18T09:38:14.720Z,1007.22
2023-02-18T09:39:14.721Z,1007.29
2023-02-18T09:40:15.533Z,1007.25
2023-02-18T09:41:14.670Z,1007.20
2023-02-18T09:42:14.657Z,1007.14
2023-02-18T09:43:14.641Z,1007.11
2023-02-18T09:44:14.688Z,1007.10
2023-02-18T09:45:14.619Z,1007.13
2023-02-18T09:46:14.657Z,1007.05
2023-02-18T09:47:14.587Z,1007.06
2023-02-18T09:48:14.570Z,1006.99
2023-02-18T09:49:14.583Z,1007.09
2023-02-18T09:50:14.547Z,1007.13
2023-02-18T09:51:14.550Z,1007.17
2023-02-18T09:52:14.530Z,1007.13
2023-02-18T09:53:14.533Z,1007.21
2023-02-18T09:54:14.564Z,1007.21
2023-02-18T09:55:14.481Z,1007.29
2023-02-18T09:56:14.469Z,1007.25
2023-02-18T09:57:14.456Z,1007.34
2023-02-18T09:58:14.442Z,1007.27
2023-02-18T09:59:14.440Z,1007.25
2023-02-18T10:00:14.419Z,1007.22
2023-02-18T10:01:14.415Z,1007.23
2023-02-18T10:02:14.385Z,1007.31
2023-02-18T10:03:14.371Z,1007.26
2023-02-18T10:04:14.383Z,1007.33
2023-02-18T10:05:14.343Z,1007.33
2023-02-18T10:06:14.332Z,1007.28
2023-02-18T10:07:14.320Z,1007.27
2023-02-18T10:08:14.344Z,1007.32
2023-02-18T10:09:14.333Z,1007.32
2023-02-18T10:10:14.280Z,1007.41
2023-02-18T10:11:14.266Z,1007.41
2023-02-18T10:12:14.264Z,1007.30
2023-02-18T10:13:14.252Z,1007.40
2023-02-18T10:14:14.247Z,1007.43
2023-02-18T10:15:14.224Z,1007.40
2023-02-18T10:16:14.284Z,1007.39
2023-02-18T10:17:14.188Z,1007.39
2023-02-18T10:18:14.170Z,1007.41
2023-02-18T10:19:14.171Z,1007.34
2023-02-18T10:20:14.136Z,1007.30
2023-02-18T10:21:14.127Z,1007.44
2023-02-18T10:22:15.193Z,1007.40
2023-02-18T10:23:14.101Z,1007.35
2023-02-18T10:24:14.103Z,1007.35
2023-02-18T10:25:14.095Z,1007.31
2023-02-18T10:26:14.067Z,1007.47
2023-02-18T10:27:14.055Z,1007.38
2023-02-18T10:28:14.036Z,1007.41
2023-02-18T10:29:14.055Z,1007.41
2023-02-18T10:30:14.078Z,1007.36
2023-02-18T10:31:14.113Z,1007.44
2023-02-18T10:32:14.054Z,1007.28
2023-02-18T10:33:13.967Z,1007.37
2023-02-18T10:34:13.970Z,1007.30
2023-02-18T10:35:13.946Z,1007.23
2023-02-18T10:36:13.925Z,1007.26
2023-02-18T10:37:13.916Z,1007.20
2023-02-18T10:38:13.904Z,1007.28
2023-02-18T10:39:13.897Z,1007.30
2023-02-18T10:40:13.868Z,1007.34
2023-02-18T10:41:13.882Z,1007.26
2023-02-18T10:42:13.846Z,1007.38
2023-02-18T10:43:13.832Z,1007.34
2023-02-18T10:44:13.826Z,1007.37
2023-02-18T10:45:13.817Z,1007.28
2023-02-18T10:46:13.974Z,1007.23
2023-02-18T10:47:13.776Z,1007.34
2023-02-18T10:48:13.761Z,1007.26
2023-02-18T10:49:13.761Z,1007.31
2023-02-18T10:50:13.750Z,1007.31
2023-02-18T10:51:13.728Z,1007.35
2023-02-18T10:52:13.705Z,1007.25
2023-02-18T10:53:13.705Z,1007.28
2023-02-18T10:54:13.710Z,1007.35
2023-02-18T10:55:13.677Z,1007.27
2023-02-18T10:56:13.678Z,1007.27
2023-02-18T10:57:13.661Z,1007.31
2023-02-18T10:58:13.626Z,1007.29
2023-02-18T10:59:13.618Z,1007.29
2023-02-18T11:00:13.612Z,1007.26
2023-02-18T11:01:13.589Z,1007.33
2023-02-18T11:02:13.573Z,1007.27
2023-02-18T11:03:13.558Z,1007.15
2023-02-18T11:04:13.540Z,1007.15
2023-02-18T11:05:13.541Z,1007.22
2023-02-18T11:06:13.512Z,1007.15
2023-02-18T11:07:13.500Z,1007.20
2023-02-18T11:08:13.494Z,1007.13
2023-02-18T11:09:13.479Z,1007.23
2023-02-18T11:10:13.477Z,1007.14
2023-02-18T11:11:13.452Z,1007.05
2023-02-18T11:12:13.441Z,1007.19
2023-02-18T11:13:13.447Z,1007.14
2023-02-18T11:14:13.416Z,1007.12
2023-02-18T11:15:13.409Z,1007.11
2023-02-18T11:16:14.441Z,1007.03
2023-02-18T11:17:13.380Z,1007.07
2023-02-18T11:18:13.357Z,1007.04
2023-02-18T11:19:13.343Z,1007.02
2023-02-18T11:20:13.347Z,1007.05
2023-02-18T11:21:13.312Z,1006.91
2023-02-18T11:22:13.302Z,1006.98
2023-02-18T11:23:13.287Z,1006.92
2023-02-18T11:24:13.277Z,1006.92
2023-02-18T11:25:13.275Z,1007.01
2023-02-18T11:26:13.246Z,1006.99
2023-02-18T11:27:14.636Z,1007.01
2023-02-18T11:28:13.228Z,1007.00
2023-02-18T11:29:13.228Z,1006.99
2023-02-18T11:30:13.245Z,1006.99
2023-02-18T11:31:13.375Z,1006.95
2023-02-18T11:32:13.371Z,1006.90
2023-02-18T11:33:14.355Z,1006.98
2023-02-18T11:34:13.143Z,1006.87
2023-02-18T11:35:13.189Z,1006.93
2023-02-18T11:36:13.124Z,1006.85
2023-02-18T11:37:13.104Z,1006.83
2023-02-18T11:38:13.090Z,1006.91
2023-02-18T11:39:13.079Z,1006.83
2023-02-18T11:40:13.079Z,1006.90
2023-02-18T11:41:13.052Z,1006.91
2023-02-18T11:42:13.033Z,1006.75
2023-02-18T11:43:13.020Z,1006.72
2023-02-18T11:44:13.004Z,1006.89
2023-02-18T11:45:13.027Z,1006.77
2023-02-18T11:46:12.985Z,1006.77
2023-02-18T11:47:12.986Z,1006.78
2023-02-18T11:48:12.953Z,1006.77
2023-02-18T11:49:12.956Z,1006.71
2023-02-18T11:50:12.944Z,1006.67
2023-02-18T11:51:12.914Z,1006.64
2023-02-18T11:52:12.902Z,1006.61
2023-02-18T11:53:12.887Z,1006.65
2023-02-18T11:54:12.870Z,1006.78
2023-02-18T11:55:12.871Z,1006.57
2023-02-18T11:56:12.849Z,1006.53
2023-02-18T11:57:12.842Z,1006.60
2023-02-18T11:58:12.827Z,1006.52
2023-02-18T11:59:12.854Z,1006.54
2023-02-18T12:00:12.816Z,1006.55
2023-02-18T12:01:12.806Z,1006.48
2023-02-18T12:02:12.828Z,1006.49
2023-02-18T12:03:12.761Z,1006.44
2023-02-18T12:04:12.747Z,1006.29
2023-02-18T12:05:12.758Z,1006.35